sensor_id;sensor_type;location;lat;lon;timestamp;temperature;humidity
13256;DHT22;37913;48.370;10.930;2023-04-24T00:01:14;9.30;99.90
13256;DHT22;37913;48.370;10.930;2023-04-24T00:03:42;9.30;99.90
13256;DHT22;37913;48.370;10.930;2023-04-24T00:06:11;9.30;99.90
13256;DHT22;37913;48.370;10.930;2023-04-24T00:08:38;9.30;99.90
13256;DHT22;37913;48.370;10.930;2023-04-24T00:11:05;9.30;99.90
13256;DHT22;37913;48.370;10.930;2023-04-24T00:13:33;9.20;99.90
13256;DHT22;37913;48.370;10.930;2023-04-24T00:16:00;9.30;99.90
13256;DHT22;37913;48.370;10.930;2023-04-24T00:18:27;9.20;99.90
13256;DHT22;37913;48.370;10.930;2023-04-24T00:20:54;9.20;99.90
13256;DHT22;37913;48.370;10.930;2023-04-24T00:23:22;9.20;99.90
13256;DHT22;37913;48.370;10.930;2023-04-24T00:25:49;9.20;99.90
13256;DHT22;37913;48.370;10.930;2023-04-24T00:28:16;9.10;99.90
13256;DHT22;37913;48.370;10.930;2023-04-24T00:30:43;9.10;99.90
13256;DHT22;37913;48.370;10.930;2023-04-24T00:33:10;9.10;99.90
13256;DHT22;37913;48.370;10.930;2023-04-24T00:35:37;9.10;99.90
13256;DHT22;37913;48.370;10.930;2023-04-24T00:38:04;9.10;99.90
13256;DHT22;37913;48.370;10.930;2023-04-24T00:40:32;9.10;99.90
13256;DHT22;37913;48.370;10.930;2023-04-24T00:42:59;9.00;99.90
13256;DHT22;37913;48.370;10.930;2023-04-24T00:45:26;9.00;99.90
13256;DHT22;37913;48.370;10.930;2023-04-24T00:47:53;9.00;99.90
13256;DHT22;37913;48.370;10.930;2023-04-24T00:50:21;8.90;99.90
13256;DHT22;37913;48.370;10.930;2023-04-24T00:52:48;9.00;99.90
13256;DHT22;37913;48.370;10.930;2023-04-24T00:55:16;8.90;99.90
13256;DHT22;37913;48.370;10.930;2023-04-24T00:57:45;8.90;99.90
13256;DHT22;37913;48.370;10.930;2023-04-24T01:00:15;8.90;99.90
13256;DHT22;37913;48.370;10.930;2023-04-24T01:02:43;8.90;99.90
13256;DHT22;37913;48.370;10.930;2023-04-24T01:05:11;8.90;99.90
13256;DHT22;37913;48.370;10.930;2023-04-24T01:07:39;8.80;99.90
13256;DHT22;37913;48.370;10.930;2023-04-24T01:10:10;8.80;99.90
13256;DHT22;37913;48.370;10.930;2023-04-24T01:12:37;8.80;99.90
13256;DHT22;37913;48.370;10.930;2023-04-24T01:15:07;8.80;99.90
13256;DHT22;37913;48.370;10.930;2023-04-24T01:17:34;8.80;99.90
13256;DHT22;37913;48.370;10.930;2023-04-24T01:20:01;8.80;99.90
13256;DHT22;37913;48.370;10.930;2023-04-24T01:22:33;8.70;99.90
13256;DHT22;37913;48.370;10.930;2023-04-24T01:25:00;8.70;99.90
13256;DHT22;37913;48.370;10.930;2023-04-24T01:27:27;8.70;99.90
13256;DHT22;37913;48.370;10.930;2023-04-24T01:29:54;8.70;99.90
13256;DHT22;37913;48.370;10.930;2023-04-24T01:32:21;8.70;99.90
13256;DHT22;37913;48.370;10.930;2023-04-24T01:34:48;8.70;99.90
13256;DHT22;37913;48.370;10.930;2023-04-24T01:37:15;8.70;99.90
13256;DHT22;37913;48.370;10.930;2023-04-24T01:39:44;8.70;99.90
13256;DHT22;37913;48.370;10.930;2023-04-24T01:42:12;8.70;99.90
13256;DHT22;37913;48.370;10.930;2023-04-24T01:44:40;8.70;99.90
13256;DHT22;37913;48.370;10.930;2023-04-24T01:47:07;8.70;99.90
13256;DHT22;37913;48.370;10.930;2023-04-24T01:49:34;8.70;99.90
13256;DHT22;37913;48.370;10.930;2023-04-24T01:52:01;8.70;99.90
13256;DHT22;37913;48.370;10.930;2023-04-24T01:54:28;8.70;99.90
13256;DHT22;37913;48.370;10.930;2023-04-24T01:56:57;8.70;99.90
13256;DHT22;37913;48.370;10.930;2023-04-24T01:59:25;8.70;99.90
13256;DHT22;37913;48.370;10.930;2023-04-24T02:01:54;8.70;99.90
13256;DHT22;37913;48.370;10.930;2023-04-24T02:04:21;8.70;99.90
13256;DHT22;37913;48.370;10.930;2023-04-24T02:06:48;8.70;99.90
13256;DHT22;37913;48.370;10.930;2023-04-24T02:09:15;8.60;99.90
13256;DHT22;37913;48.370;10.930;2023-04-24T02:11:42;8.70;99.90
13256;DHT22;37913;48.370;10.930;2023-04-24T02:14:10;8.70;99.90
13256;DHT22;37913;48.370;10.930;2023-04-24T02:16:37;8.70;99.90
13256;DHT22;37913;48.370;10.930;2023-04-24T02:19:04;8.70;99.90
13256;DHT22;37913;48.370;10.930;2023-04-24T02:21:31;8.70;99.90
13256;DHT22;37913;48.370;10.930;2023-04-24T02:23:58;8.70;99.90
13256;DHT22;37913;48.370;10.930;2023-04-24T02:26:25;8.70;99.90
13256;DHT22;37913;48.370;10.930;2023-04-24T02:28:52;8.70;99.90
13256;DHT22;37913;48.370;10.930;2023-04-24T02:31:20;8.70;99.90
13256;DHT22;37913;48.370;10.930;2023-04-24T02:33:47;8.70;99.90
13256;DHT22;37913;48.370;10.930;2023-04-24T02:36:14;8.70;99.90
13256;DHT22;37913;48.370;10.930;2023-04-24T02:38:41;8.70;99.90
13256;DHT22;37913;48.370;10.930;2023-04-24T02:41:08;8.70;99.90
13256;DHT22;37913;48.370;10.930;2023-04-24T02:43:35;8.70;99.90
13256;DHT22;37913;48.370;10.930;2023-04-24T02:46:02;8.70;99.90
13256;DHT22;37913;48.370;10.930;2023-04-24T02:48:30;8.70;99.90
13256;DHT22;37913;48.370;10.930;2023-04-24T02:50:57;8.70;99.90
13256;DHT22;37913;48.370;10.930;2023-04-24T02:53:24;8.70;99.90
13256;DHT22;37913;48.370;10.930;2023-04-24T02:55:51;8.70;99.90
13256;DHT22;37913;48.370;10.930;2023-04-24T02:58:18;8.70;99.90
13256;DHT22;37913;48.370;10.930;2023-04-24T03:00:46;8.70;99.90
13256;DHT22;37913;48.370;10.930;2023-04-24T03:03:13;8.70;99.90
13256;DHT22;37913;48.370;10.930;2023-04-24T03:05:42;8.70;99.90
13256;DHT22;37913;48.370;10.930;2023-04-24T03:08:09;8.70;99.90
13256;DHT22;37913;48.370;10.930;2023-04-24T03:10:35;8.70;99.90
13256;DHT22;37913;48.370;10.930;2023-04-24T03:13:02;8.70;99.90
13256;DHT22;37913;48.370;10.930;2023-04-24T03:15:29;8.70;99.90
13256;DHT22;37913;48.370;10.930;2023-04-24T03:17:56;8.70;99.90
13256;DHT22;37913;48.370;10.930;2023-04-24T03:20:23;8.70;99.90
13256;DHT22;37913;48.370;10.930;2023-04-24T03:22:51;8.60;99.90
13256;DHT22;37913;48.370;10.930;2023-04-24T03:25:18;8.60;99.90
13256;DHT22;37913;48.370;10.930;2023-04-24T03:27:45;8.60;99.90
13256;DHT22;37913;48.370;10.930;2023-04-24T03:30:12;8.60;99.90
13256;DHT22;37913;48.370;10.930;2023-04-24T03:32:39;8.60;99.90
13256;DHT22;37913;48.370;10.930;2023-04-24T03:35:07;8.60;99.90
13256;DHT22;37913;48.370;10.930;2023-04-24T03:37:34;8.60;99.90
13256;DHT22;37913;48.370;10.930;2023-04-24T03:40:03;8.60;99.90
13256;DHT22;37913;48.370;10.930;2023-04-24T03:42:31;8.60;99.90
13256;DHT22;37913;48.370;10.930;2023-04-24T03:44:58;8.60;99.90
13256;DHT22;37913;48.370;10.930;2023-04-24T03:47:25;8.60;99.90
13256;DHT22;37913;48.370;10.930;2023-04-24T03:49:52;8.60;99.90
13256;DHT22;37913;48.370;10.930;2023-04-24T03:52:19;8.60;99.90
13256;DHT22;37913;48.370;10.930;2023-04-24T03:54:46;8.60;99.90
13256;DHT22;37913;48.370;10.930;2023-04-24T03:57:15;8.60;99.90
13256;DHT22;37913;48.370;10.930;2023-04-24T03:59:41;8.60;99.90
13256;DHT22;37913;48.370;10.930;2023-04-24T04:02:08;8.60;99.90
13256;DHT22;37913;48.370;10.930;2023-04-24T04:04:35;8.60;99.90
13256;DHT22;37913;48.370;10.930;2023-04-24T04:07:02;8.50;99.90
13256;DHT22;37913;48.370;10.930;2023-04-24T04:09:30;8.50;99.90
13256;DHT22;37913;48.370;10.930;2023-04-24T04:11:58;8.50;99.90
13256;DHT22;37913;48.370;10.930;2023-04-24T04:14:27;8.50;99.90
13256;DHT22;37913;48.370;10.930;2023-04-24T04:16:54;8.50;99.90
13256;DHT22;37913;48.370;10.930;2023-04-24T04:19:21;8.50;99.90
13256;DHT22;37913;48.370;10.930;2023-04-24T04:21:48;8.50;99.90
13256;DHT22;37913;48.370;10.930;2023-04-24T04:24:18;8.50;99.90
13256;DHT22;37913;48.370;10.930;2023-04-24T04:26:46;8.50;99.90
13256;DHT22;37913;48.370;10.930;2023-04-24T04:29:13;8.50;99.90
13256;DHT22;37913;48.370;10.930;2023-04-24T04:31:42;8.50;99.90
13256;DHT22;37913;48.370;10.930;2023-04-24T04:34:09;8.50;99.90
13256;DHT22;37913;48.370;10.930;2023-04-24T04:36:37;8.50;99.90
13256;DHT22;37913;48.370;10.930;2023-04-24T04:39:05;8.50;99.90
13256;DHT22;37913;48.370;10.930;2023-04-24T04:41:32;8.50;99.90
13256;DHT22;37913;48.370;10.930;2023-04-24T04:44:00;8.40;99.90
13256;DHT22;37913;48.370;10.930;2023-04-24T04:46:30;8.50;99.90
13256;DHT22;37913;48.370;10.930;2023-04-24T04:49:00;8.50;99.90
13256;DHT22;37913;48.370;10.930;2023-04-24T04:51:28;8.50;99.90
13256;DHT22;37913;48.370;10.930;2023-04-24T04:53:55;8.50;99.90
13256;DHT22;37913;48.370;10.930;2023-04-24T04:56:22;8.50;99.90
13256;DHT22;37913;48.370;10.930;2023-04-24T04:58:49;8.50;99.90
13256;DHT22;37913;48.370;10.930;2023-04-24T05:01:16;8.60;99.90
13256;DHT22;37913;48.370;10.930;2023-04-24T05:03:43;8.60;99.90
13256;DHT22;37913;48.370;10.930;2023-04-24T05:06:11;8.60;99.90
13256;DHT22;37913;48.370;10.930;2023-04-24T05:08:38;8.60;99.90
13256;DHT22;37913;48.370;10.930;2023-04-24T05:11:05;8.60;99.90
13256;DHT22;37913;48.370;10.930;2023-04-24T05:13:32;8.60;99.90
13256;DHT22;37913;48.370;10.930;2023-04-24T05:15:59;8.60;99.90
13256;DHT22;37913;48.370;10.930;2023-04-24T05:18:26;8.50;99.90
13256;DHT22;37913;48.370;10.930;2023-04-24T05:20:53;8.60;99.90
13256;DHT22;37913;48.370;10.930;2023-04-24T05:23:22;8.60;99.90
13256;DHT22;37913;48.370;10.930;2023-04-24T05:25:49;8.60;99.90
13256;DHT22;37913;48.370;10.930;2023-04-24T05:28:16;8.60;99.90
13256;DHT22;37913;48.370;10.930;2023-04-24T05:30:43;8.60;99.90
13256;DHT22;37913;48.370;10.930;2023-04-24T05:33:10;8.70;99.90
13256;DHT22;37913;48.370;10.930;2023-04-24T05:35:37;8.60;99.90
13256;DHT22;37913;48.370;10.930;2023-04-24T05:38:03;8.60;99.90
13256;DHT22;37913;48.370;10.930;2023-04-24T05:40:32;8.70;99.90
13256;DHT22;37913;48.370;10.930;2023-04-24T05:42:59;8.70;99.90
13256;DHT22;37913;48.370;10.930;2023-04-24T05:45:26;8.70;99.90
13256;DHT22;37913;48.370;10.930;2023-04-24T05:47:53;8.70;99.90
13256;DHT22;37913;48.370;10.930;2023-04-24T05:50:20;8.70;99.90
13256;DHT22;37913;48.370;10.930;2023-04-24T05:52:47;8.60;99.90
13256;DHT22;37913;48.370;10.930;2023-04-24T05:55:14;8.50;99.90
13256;DHT22;37913;48.370;10.930;2023-04-24T05:57:45;8.80;99.90
13256;DHT22;37913;48.370;10.930;2023-04-24T06:00:13;8.70;99.90
13256;DHT22;37913;48.370;10.930;2023-04-24T06:02:40;8.70;99.90
13256;DHT22;37913;48.370;10.930;2023-04-24T06:05:07;8.90;99.90
13256;DHT22;37913;48.370;10.930;2023-04-24T06:07:35;9.00;99.90
13256;DHT22;37913;48.370;10.930;2023-04-24T06:10:02;9.00;99.90
13256;DHT22;37913;48.370;10.930;2023-04-24T06:12:29;9.00;99.90
13256;DHT22;37913;48.370;10.930;2023-04-24T06:14:57;8.90;99.90
13256;DHT22;37913;48.370;10.930;2023-04-24T06:17:24;8.80;99.90
13256;DHT22;37913;48.370;10.930;2023-04-24T06:19:51;9.00;99.90
13256;DHT22;37913;48.370;10.930;2023-04-24T06:22:18;9.00;99.90
13256;DHT22;37913;48.370;10.930;2023-04-24T06:24:44;9.00;99.90
13256;DHT22;37913;48.370;10.930;2023-04-24T06:27:12;9.20;99.90
13256;DHT22;37913;48.370;10.930;2023-04-24T06:29:39;9.00;99.90
13256;DHT22;37913;48.370;10.930;2023-04-24T06:32:08;8.90;99.90
13256;DHT22;37913;48.370;10.930;2023-04-24T06:34:34;8.70;99.90
13256;DHT22;37913;48.370;10.930;2023-04-24T06:37:02;8.90;99.90
13256;DHT22;37913;48.370;10.930;2023-04-24T06:39:29;9.10;99.90
13256;DHT22;37913;48.370;10.930;2023-04-24T06:41:56;9.30;99.90
13256;DHT22;37913;48.370;10.930;2023-04-24T06:44:23;9.10;99.90
13256;DHT22;37913;48.370;10.930;2023-04-24T06:46:50;9.10;99.90
13256;DHT22;37913;48.370;10.930;2023-04-24T06:49:19;9.20;99.90
13256;DHT22;37913;48.370;10.930;2023-04-24T06:51:46;9.20;99.90
13256;DHT22;37913;48.370;10.930;2023-04-24T06:54:13;9.30;99.90
13256;DHT22;37913;48.370;10.930;2023-04-24T06:56:41;9.40;99.90
13256;DHT22;37913;48.370;10.930;2023-04-24T06:59:11;9.30;99.90
13256;DHT22;37913;48.370;10.930;2023-04-24T07:01:39;9.40;99.90
13256;DHT22;37913;48.370;10.930;2023-04-24T07:04:06;9.80;99.90
13256;DHT22;37913;48.370;10.930;2023-04-24T07:06:35;9.60;99.90
13256;DHT22;37913;48.370;10.930;2023-04-24T07:09:03;9.50;99.90
13256;DHT22;37913;48.370;10.930;2023-04-24T07:11:30;9.70;99.90
13256;DHT22;37913;48.370;10.930;2023-04-24T07:13:57;9.60;99.90
13256;DHT22;37913;48.370;10.930;2023-04-24T07:16:25;9.40;99.90
13256;DHT22;37913;48.370;10.930;2023-04-24T07:18:52;9.30;99.90
13256;DHT22;37913;48.370;10.930;2023-04-24T07:21:19;9.20;99.90
13256;DHT22;37913;48.370;10.930;2023-04-24T07:23:47;9.20;99.90
13256;DHT22;37913;48.370;10.930;2023-04-24T07:26:14;9.30;99.90
13256;DHT22;37913;48.370;10.930;2023-04-24T07:28:41;9.60;99.90
13256;DHT22;37913;48.370;10.930;2023-04-24T07:31:08;9.50;99.90
13256;DHT22;37913;48.370;10.930;2023-04-24T07:33:35;9.50;99.90
13256;DHT22;37913;48.370;10.930;2023-04-24T07:36:03;9.50;99.90
13256;DHT22;37913;48.370;10.930;2023-04-24T07:38:31;9.20;99.90
13256;DHT22;37913;48.370;10.930;2023-04-24T07:40:59;9.20;99.90
13256;DHT22;37913;48.370;10.930;2023-04-24T07:43:26;9.10;99.90
13256;DHT22;37913;48.370;10.930;2023-04-24T07:45:53;9.00;99.90
13256;DHT22;37913;48.370;10.930;2023-04-24T07:48:20;9.10;99.90
13256;DHT22;37913;48.370;10.930;2023-04-24T07:50:47;9.40;99.90
13256;DHT22;37913;48.370;10.930;2023-04-24T07:53:14;9.70;99.90
13256;DHT22;37913;48.370;10.930;2023-04-24T07:55:41;9.60;99.90
13256;DHT22;37913;48.370;10.930;2023-04-24T07:58:10;9.50;99.90
13256;DHT22;37913;48.370;10.930;2023-04-24T08:00:37;9.60;99.90
13256;DHT22;37913;48.370;10.930;2023-04-24T08:03:04;9.70;99.90
13256;DHT22;37913;48.370;10.930;2023-04-24T08:05:31;9.60;99.90
13256;DHT22;37913;48.370;10.930;2023-04-24T08:07:58;9.80;99.90
13256;DHT22;37913;48.370;10.930;2023-04-24T08:10:25;9.80;99.90
13256;DHT22;37913;48.370;10.930;2023-04-24T08:12:52;9.90;99.90
13256;DHT22;37913;48.370;10.930;2023-04-24T08:15:22;10.20;99.90
13256;DHT22;37913;48.370;10.930;2023-04-24T08:17:50;9.90;99.90
13256;DHT22;37913;48.370;10.930;2023-04-24T08:20:17;10.20;99.90
13256;DHT22;37913;48.370;10.930;2023-04-24T08:22:44;10.30;99.90
13256;DHT22;37913;48.370;10.930;2023-04-24T08:25:13;10.10;99.90
13256;DHT22;37913;48.370;10.930;2023-04-24T08:27:40;10.00;99.90
13256;DHT22;37913;48.370;10.930;2023-04-24T08:30:07;10.30;99.90
13256;DHT22;37913;48.370;10.930;2023-04-24T08:32:36;10.80;99.90
13256;DHT22;37913;48.370;10.930;2023-04-24T08:35:03;11.10;99.90
13256;DHT22;37913;48.370;10.930;2023-04-24T08:37:30;12.30;99.90
13256;DHT22;37913;48.370;10.930;2023-04-24T08:39:57;12.80;99.90
13256;DHT22;37913;48.370;10.930;2023-04-24T08:42:25;13.30;99.90
13256;DHT22;37913;48.370;10.930;2023-04-24T08:44:55;13.90;99.90
13256;DHT22;37913;48.370;10.930;2023-04-24T08:47:23;14.20;99.90
13256;DHT22;37913;48.370;10.930;2023-04-24T08:49:54;13.80;99.90
13256;DHT22;37913;48.370;10.930;2023-04-24T08:52:22;13.00;99.90
13256;DHT22;37913;48.370;10.930;2023-04-24T08:54:49;12.80;99.90
13256;DHT22;37913;48.370;10.930;2023-04-24T08:57:16;12.50;99.90
13256;DHT22;37913;48.370;10.930;2023-04-24T08:59:44;12.70;99.90
13256;DHT22;37913;48.370;10.930;2023-04-24T09:02:11;13.00;99.90
13256;DHT22;37913;48.370;10.930;2023-04-24T09:04:40;13.80;99.90
13256;DHT22;37913;48.370;10.930;2023-04-24T09:07:10;14.90;99.90
13256;DHT22;37913;48.370;10.930;2023-04-24T09:09:39;16.50;99.90
13256;DHT22;37913;48.370;10.930;2023-04-24T09:12:08;16.10;99.90
13256;DHT22;37913;48.370;10.930;2023-04-24T09:14:36;15.50;99.90
13256;DHT22;37913;48.370;10.930;2023-04-24T09:17:05;15.40;99.90
13256;DHT22;37913;48.370;10.930;2023-04-24T09:19:32;15.60;99.90
13256;DHT22;37913;48.370;10.930;2023-04-24T09:21:59;15.60;99.90
13256;DHT22;37913;48.370;10.930;2023-04-24T09:24:33;15.70;99.90
13256;DHT22;37913;48.370;10.930;2023-04-24T09:27:01;14.50;99.90
13256;DHT22;37913;48.370;10.930;2023-04-24T09:29:29;15.40;99.90
13256;DHT22;37913;48.370;10.930;2023-04-24T09:31:58;15.50;99.90
13256;DHT22;37913;48.370;10.930;2023-04-24T09:34:27;15.80;99.90
13256;DHT22;37913;48.370;10.930;2023-04-24T09:36:54;14.50;99.90
13256;DHT22;37913;48.370;10.930;2023-04-24T09:39:21;14.30;99.90
13256;DHT22;37913;48.370;10.930;2023-04-24T09:41:52;14.60;99.90
13256;DHT22;37913;48.370;10.930;2023-04-24T09:44:20;14.60;99.90
13256;DHT22;37913;48.370;10.930;2023-04-24T09:46:50;14.40;99.90
13256;DHT22;37913;48.370;10.930;2023-04-24T09:49:23;14.90;99.90
13256;DHT22;37913;48.370;10.930;2023-04-24T09:51:51;16.30;99.90
13256;DHT22;37913;48.370;10.930;2023-04-24T09:54:19;17.40;99.90
13256;DHT22;37913;48.370;10.930;2023-04-24T09:56:49;15.80;99.90
13256;DHT22;37913;48.370;10.930;2023-04-24T09:59:17;15.40;99.90
13256;DHT22;37913;48.370;10.930;2023-04-24T10:01:47;15.40;99.90
13256;DHT22;37913;48.370;10.930;2023-04-24T10:04:16;15.30;99.90
13256;DHT22;37913;48.370;10.930;2023-04-24T10:06:44;15.30;99.90
13256;DHT22;37913;48.370;10.930;2023-04-24T10:09:12;15.20;99.90
13256;DHT22;37913;48.370;10.930;2023-04-24T10:11:42;15.90;99.90
13256;DHT22;37913;48.370;10.930;2023-04-24T10:14:12;15.60;99.90
13256;DHT22;37913;48.370;10.930;2023-04-24T10:16:40;16.50;99.90
13256;DHT22;37913;48.370;10.930;2023-04-24T10:19:07;14.20;99.90
13256;DHT22;37913;48.370;10.930;2023-04-24T10:21:35;12.80;99.90
13256;DHT22;37913;48.370;10.930;2023-04-24T10:24:03;12.40;99.90
13256;DHT22;37913;48.370;10.930;2023-04-24T10:26:33;12.20;99.90
13256;DHT22;37913;48.370;10.930;2023-04-24T10:29:01;11.90;99.90
13256;DHT22;37913;48.370;10.930;2023-04-24T10:31:32;11.80;99.90
13256;DHT22;37913;48.370;10.930;2023-04-24T10:34:01;11.90;99.90
13256;DHT22;37913;48.370;10.930;2023-04-24T10:36:29;11.80;99.90
13256;DHT22;37913;48.370;10.930;2023-04-24T10:39:01;10.90;99.90
13256;DHT22;37913;48.370;10.930;2023-04-24T10:41:30;10.60;99.90
13256;DHT22;37913;48.370;10.930;2023-04-24T10:44:08;10.50;28.20
13256;DHT22;37913;48.370;10.930;2023-04-24T10:46:37;10.40;1.00
13256;DHT22;37913;48.370;10.930;2023-04-24T10:49:06;10.80;1.00
13256;DHT22;37913;48.370;10.930;2023-04-24T10:51:48;11.00;99.90
13256;DHT22;37913;48.370;10.930;2023-04-24T10:54:26;10.90;1.00
13256;DHT22;37913;48.370;10.930;2023-04-24T10:57:25;10.90;45.10
13256;DHT22;37913;48.370;10.930;2023-04-24T11:00:13;11.70;1.00
13256;DHT22;37913;48.370;10.930;2023-04-24T11:02:41;14.40;1.00
13256;DHT22;37913;48.370;10.930;2023-04-24T11:05:15;17.30;99.90
13256;DHT22;37913;48.370;10.930;2023-04-24T11:08:12;19.50;99.90
13256;DHT22;37913;48.370;10.930;2023-04-24T11:10:41;20.70;99.90
13256;DHT22;37913;48.370;10.930;2023-04-24T11:13:10;24.60;99.90
13256;DHT22;37913;48.370;10.930;2023-04-24T11:15:41;24.10;99.90
13256;DHT22;37913;48.370;10.930;2023-04-24T11:18:14;21.90;99.90
13256;DHT22;37913;48.370;10.930;2023-04-24T11:20:43;19.60;99.90
13256;DHT22;37913;48.370;10.930;2023-04-24T11:23:12;19.30;99.90
13256;DHT22;37913;48.370;10.930;2023-04-24T11:25:39;19.10;99.90
13256;DHT22;37913;48.370;10.930;2023-04-24T11:28:07;20.90;99.90
13256;DHT22;37913;48.370;10.930;2023-04-24T11:30:41;22.50;99.00
13256;DHT22;37913;48.370;10.930;2023-04-24T11:33:08;23.80;96.70
13256;DHT22;37913;48.370;10.930;2023-04-24T11:35:40;21.40;96.70
13256;DHT22;37913;48.370;10.930;2023-04-24T11:38:07;24.40;94.20
13256;DHT22;37913;48.370;10.930;2023-04-24T11:40:34;26.60;91.60
13256;DHT22;37913;48.370;10.930;2023-04-24T11:43:01;25.10;81.70
13256;DHT22;37913;48.370;10.930;2023-04-24T11:45:30;22.40;89.80
13256;DHT22;37913;48.370;10.930;2023-04-24T11:47:57;23.30;87.20
13256;DHT22;37913;48.370;10.930;2023-04-24T11:50:25;22.90;87.10
13256;DHT22;37913;48.370;10.930;2023-04-24T11:52:55;21.80;89.30
13256;DHT22;37913;48.370;10.930;2023-04-24T11:55:27;20.90;90.50
13256;DHT22;37913;48.370;10.930;2023-04-24T11:57:55;20.10;91.40
13256;DHT22;37913;48.370;10.930;2023-04-24T12:00:24;18.50;93.00
13256;DHT22;37913;48.370;10.930;2023-04-24T12:03:04;16.90;97.20
13256;DHT22;37913;48.370;10.930;2023-04-24T12:05:32;16.40;97.90
13256;DHT22;37913;48.370;10.930;2023-04-24T12:08:01;16.40;96.70
13256;DHT22;37913;48.370;10.930;2023-04-24T12:10:30;17.80;94.10
13256;DHT22;37913;48.370;10.930;2023-04-24T12:12:58;22.00;90.30
13256;DHT22;37913;48.370;10.930;2023-04-24T12:15:25;25.90;83.10
13256;DHT22;37913;48.370;10.930;2023-04-24T12:17:54;26.20;78.90
13256;DHT22;37913;48.370;10.930;2023-04-24T12:20:24;26.60;75.10
13256;DHT22;37913;48.370;10.930;2023-04-24T12:22:53;28.10;70.10
13256;DHT22;37913;48.370;10.930;2023-04-24T12:25:24;29.20;67.50
13256;DHT22;37913;48.370;10.930;2023-04-24T12:27:55;27.20;69.30
13256;DHT22;37913;48.370;10.930;2023-04-24T12:30:40;24.70;70.00
13256;DHT22;37913;48.370;10.930;2023-04-24T12:33:07;23.50;74.50
13256;DHT22;37913;48.370;10.930;2023-04-24T12:35:34;26.40;68.80
13256;DHT22;37913;48.370;10.930;2023-04-24T12:38:08;27.40;66.10
13256;DHT22;37913;48.370;10.930;2023-04-24T12:40:37;29.90;62.20
13256;DHT22;37913;48.370;10.930;2023-04-24T12:43:13;29.90;60.80
13256;DHT22;37913;48.370;10.930;2023-04-24T12:45:41;31.00;58.90
13256;DHT22;37913;48.370;10.930;2023-04-24T12:48:07;31.20;56.90
13256;DHT22;37913;48.370;10.930;2023-04-24T12:50:35;30.00;58.10
13256;DHT22;37913;48.370;10.930;2023-04-24T12:53:01;27.10;60.90
13256;DHT22;37913;48.370;10.930;2023-04-24T12:55:28;24.30;65.70
13256;DHT22;37913;48.370;10.930;2023-04-24T12:57:57;21.50;66.90
13256;DHT22;37913;48.370;10.930;2023-04-24T13:00:24;20.60;69.60
13256;DHT22;37913;48.370;10.930;2023-04-24T13:02:50;18.90;72.90
13256;DHT22;37913;48.370;10.930;2023-04-24T13:05:17;17.70;77.70
13256;DHT22;37913;48.370;10.930;2023-04-24T13:07:44;16.90;81.00
13256;DHT22;37913;48.370;10.930;2023-04-24T13:10:12;16.50;83.20
13256;DHT22;37913;48.370;10.930;2023-04-24T13:12:39;16.70;80.80
13256;DHT22;37913;48.370;10.930;2023-04-24T13:15:08;19.20;77.10
13256;DHT22;37913;48.370;10.930;2023-04-24T13:17:35;21.60;69.20
13256;DHT22;37913;48.370;10.930;2023-04-24T13:20:04;23.20;62.20
13256;DHT22;37913;48.370;10.930;2023-04-24T13:22:33;24.00;62.90
13256;DHT22;37913;48.370;10.930;2023-04-24T13:24:59;25.30;60.90
13256;DHT22;37913;48.370;10.930;2023-04-24T13:27:26;26.10;59.80
13256;DHT22;37913;48.370;10.930;2023-04-24T13:29:53;27.30;57.80
13256;DHT22;37913;48.370;10.930;2023-04-24T13:32:22;22.40;61.10
13256;DHT22;37913;48.370;10.930;2023-04-24T13:34:49;22.40;64.20
13256;DHT22;37913;48.370;10.930;2023-04-24T13:37:15;21.90;61.70
13256;DHT22;37913;48.370;10.930;2023-04-24T13:39:42;20.70;62.70
13256;DHT22;37913;48.370;10.930;2023-04-24T13:42:09;19.30;66.80
13256;DHT22;37913;48.370;10.930;2023-04-24T13:44:37;19.70;66.20
13256;DHT22;37913;48.370;10.930;2023-04-24T13:47:04;19.90;66.60
13256;DHT22;37913;48.370;10.930;2023-04-24T13:49:32;19.30;68.60
13256;DHT22;37913;48.370;10.930;2023-04-24T13:51:59;19.00;69.80
13256;DHT22;37913;48.370;10.930;2023-04-24T13:54:26;17.50;74.60
13256;DHT22;37913;48.370;10.930;2023-04-24T13:56:53;17.60;76.80
13256;DHT22;37913;48.370;10.930;2023-04-24T13:59:20;17.40;78.70
13256;DHT22;37913;48.370;10.930;2023-04-24T14:01:47;17.20;77.90
13256;DHT22;37913;48.370;10.930;2023-04-24T14:04:14;17.00;79.80
13256;DHT22;37913;48.370;10.930;2023-04-24T14:06:43;16.50;82.00
13256;DHT22;37913;48.370;10.930;2023-04-24T14:09:11;16.70;80.40
13256;DHT22;37913;48.370;10.930;2023-04-24T14:11:38;16.40;78.60
13256;DHT22;37913;48.370;10.930;2023-04-24T14:14:06;17.10;78.10
13256;DHT22;37913;48.370;10.930;2023-04-24T14:16:33;17.00;77.00
13256;DHT22;37913;48.370;10.930;2023-04-24T14:19:00;16.60;80.40
13256;DHT22;37913;48.370;10.930;2023-04-24T14:21:28;16.10;79.60
13256;DHT22;37913;48.370;10.930;2023-04-24T14:23:57;15.50;80.80
13256;DHT22;37913;48.370;10.930;2023-04-24T14:26:23;15.00;81.30
13256;DHT22;37913;48.370;10.930;2023-04-24T14:28:51;15.50;82.90
13256;DHT22;37913;48.370;10.930;2023-04-24T14:31:18;15.60;82.60
13256;DHT22;37913;48.370;10.930;2023-04-24T14:33:45;15.70;84.30
13256;DHT22;37913;48.370;10.930;2023-04-24T14:36:12;15.50;82.50
13256;DHT22;37913;48.370;10.930;2023-04-24T14:38:39;15.10;83.80
13256;DHT22;37913;48.370;10.930;2023-04-24T14:41:07;15.00;86.00
13256;DHT22;37913;48.370;10.930;2023-04-24T14:43:37;14.90;85.40
13256;DHT22;37913;48.370;10.930;2023-04-24T14:46:04;14.80;86.20
13256;DHT22;37913;48.370;10.930;2023-04-24T14:48:31;14.60;87.50
13256;DHT22;37913;48.370;10.930;2023-04-24T14:50:58;14.70;87.10
13256;DHT22;37913;48.370;10.930;2023-04-24T14:53:25;14.80;86.20
13256;DHT22;37913;48.370;10.930;2023-04-24T14:55:52;14.60;87.00
13256;DHT22;37913;48.370;10.930;2023-04-24T14:58:21;14.50;87.40
13256;DHT22;37913;48.370;10.930;2023-04-24T15:00:48;14.50;88.40
13256;DHT22;37913;48.370;10.930;2023-04-24T15:03:18;14.80;87.50
13256;DHT22;37913;48.370;10.930;2023-04-24T15:05:46;14.80;85.20
13256;DHT22;37913;48.370;10.930;2023-04-24T15:08:14;15.20;85.20
13256;DHT22;37913;48.370;10.930;2023-04-24T15:10:41;15.50;85.30
13256;DHT22;37913;48.370;10.930;2023-04-24T15:13:08;15.70;84.80
13256;DHT22;37913;48.370;10.930;2023-04-24T15:15:36;15.60;84.60
13256;DHT22;37913;48.370;10.930;2023-04-24T15:18:04;15.50;84.70
13256;DHT22;37913;48.370;10.930;2023-04-24T15:20:31;15.40;84.80
13256;DHT22;37913;48.370;10.930;2023-04-24T15:22:58;15.40;84.40
13256;DHT22;37913;48.370;10.930;2023-04-24T15:25:26;15.50;85.00
13256;DHT22;37913;48.370;10.930;2023-04-24T15:27:53;16.50;85.50
13256;DHT22;37913;48.370;10.930;2023-04-24T15:30:20;15.20;85.40